Aeroporto :
LOGIN :

Iscrizione | Disclaimer

   EN    FR    IT 

 










Sommario :    VFR   VFR Marginale   IFR   IFR Intensivo   IFR Molto Intensivo
Visibilità : 
Base nubi : 
>= 8 km
>= 3000ft
5 / 8 km
1000 / 3000 ft
1500m / 5 km
500 / 1000 ft
800 / 1500m
200 / 500 ft
< 800m
< 200 ft
Simboli :   Temporali  Nebbia  Neve Forte  Precipitazioni Forti  Vento > 20 kt
SIGMETs :   Varie  Temporali  Ghiacco  Turbolenza  Onda orograficha  Ceneri Vulcaniche







- Altitudine del aeroporto : 580 ft
- Carte del aeroporto


LFOA - Avord

ULTIMO METAR :
  • 162030Z AUTO 03004KT 9999 NCD 18/12 Q1020

METARs OBSOLETI :
  • 162000Z AUTO 03003KT 9999 NCD 19/13 Q1020
  • 161930Z AUTO 01003KT 9999 NCD 20/13 Q1020
  • 161900Z AUTO 01003KT 9999 NCD 21/13 Q1020
  • 161830Z AUTO 03005KT 9999 NCD 22/12 Q1020
  • 161800Z AUTO 04004KT 360V060 9999 FEW047/// 22/12 Q1020
  • 161730Z AUTO VRB03KT 9999 FEW046/// 23/12 Q1020

TAF TAF LFOA
Valido dal 16 a 15 ore il 17 a 15 ore UTC


161400Z 1615/1715 27005KT 9999 BKN030
PROB30
TEMPO 1703/1707 VRB02KT 0800 BCFG
Nessun NOTAM noto per questo aeroporto.



MetMap, La meteo Aeronautica in un colpo d'occhio ! - Copyright ORBIFLY Dicembre 2007 - Disclaimer

ORBIFLY MET'MAP TEAM :

Programmazione e sviluppo : Alexandra Zaïnal
Concezione e sviluppo : Baudouin d'Aumeries
Co-Programmazione e sviluppo : Marc-Olivier Méhu
Supporto tecnico e logistico : Manuel Goepfert
Aiuto per la traduzione : Arnaldo La Scala

Contatto : metmap@orbifly.com




FONTI E CREDITI :

   NOAA